createdAt,value
2019-05-30T00:01:27.358Z,7.03
2019-05-30T00:04:11.358Z,7.47
2019-05-30T00:06:42.377Z,7.85
2019-05-30T00:09:12.295Z,7.35
2019-05-30T00:11:46.319Z,7.28
2019-05-30T00:14:16.504Z,7.22
2019-05-30T00:16:47.581Z,7.35
2019-05-30T00:19:17.474Z,8.05
2019-05-30T00:21:48.464Z,7.35
2019-05-30T00:24:18.171Z,7.47
2019-05-30T00:26:49.076Z,7.42
2019-05-30T00:29:19.186Z,8.40
2019-05-30T00:31:57.478Z,8.20
2019-05-30T00:34:27.533Z,8.20
2019-05-30T00:36:59.744Z,8.50
2019-05-30T00:39:30.920Z,8.18
2019-05-30T00:42:02.575Z,6.85
2019-05-30T00:44:33.637Z,7.00
2019-05-30T00:47:04.580Z,6.12
2019-05-30T00:49:35.279Z,7.05
2019-05-30T00:52:06.830Z,7.75
2019-05-30T00:54:37.089Z,7.20
2019-05-30T00:57:07.294Z,7.42
2019-05-30T00:59:37.146Z,5.92
2019-05-30T01:02:07.087Z,6.00
2019-05-30T01:04:37.207Z,6.20
2019-05-30T01:07:07.350Z,5.50
2019-05-30T01:09:38.037Z,5.70
2019-05-30T01:12:08.006Z,5.45
2019-05-30T01:14:37.853Z,5.97
2019-05-30T01:17:08.128Z,6.25
2019-05-30T01:19:40.186Z,6.75
2019-05-30T01:22:10.019Z,6.22
2019-05-30T01:24:40.035Z,6.35
2019-05-30T01:27:09.946Z,8.23
2019-05-30T01:29:39.663Z,7.65
2019-05-30T01:32:28.206Z,7.55
2019-05-30T01:34:59.731Z,8.68
2019-05-30T01:37:30.923Z,7.40
2019-05-30T01:40:01.867Z,8.03
2019-05-30T01:42:31.643Z,8.00
2019-05-30T01:45:02.667Z,8.33
2019-05-30T01:47:32.711Z,7.55
2019-05-30T01:50:08.739Z,6.87
2019-05-30T01:52:38.686Z,7.00
2019-05-30T01:55:10.451Z,7.15
2019-05-30T01:57:41.495Z,8.05
2019-05-30T02:00:21.343Z,6.50
2019-05-30T02:02:49.554Z,8.98
2019-05-30T02:05:22.039Z,8.25
2019-05-30T02:07:53.133Z,6.90
2019-05-30T02:10:22.992Z,7.60
2019-05-30T02:12:52.701Z,6.50
2019-05-30T02:15:22.738Z,5.60
2019-05-30T02:17:52.838Z,7.10
2019-05-30T02:20:22.991Z,6.55
2019-05-30T02:22:53.093Z,7.12
2019-05-30T02:25:27.271Z,6.22
2019-05-30T02:28:00.411Z,6.85
2019-05-30T02:30:30.519Z,7.03
2019-05-30T02:33:02.949Z,6.10
2019-05-30T02:35:33.688Z,6.70
2019-05-30T02:38:07.219Z,6.80
2019-05-30T02:40:40.193Z,7.10
2019-05-30T02:43:12.048Z,6.70
2019-05-30T02:45:43.021Z,6.85
2019-05-30T02:48:13.116Z,7.55
2019-05-30T02:50:46.175Z,6.62
2019-05-30T02:53:16.187Z,8.50
2019-05-30T02:55:48.222Z,7.17
2019-05-30T02:58:22.270Z,7.65
2019-05-30T03:00:52.359Z,7.65
2019-05-30T03:03:23.122Z,7.00
2019-05-30T03:05:53.228Z,6.97
2019-05-30T03:08:23.196Z,7.25
2019-05-30T03:10:53.530Z,6.67
2019-05-30T03:13:24.751Z,7.95
2019-05-30T03:15:54.716Z,6.90
2019-05-30T03:18:24.539Z,7.97
2019-05-30T03:20:54.585Z,7.92
2019-05-30T03:23:25.792Z,7.58
2019-05-30T03:26:02.578Z,7.03
2019-05-30T03:28:34.836Z,7.10
2019-05-30T03:31:17.656Z,7.47
2019-05-30T03:33:42.759Z,6.60
2019-05-30T03:36:29.814Z,7.25
2019-05-30T03:38:54.164Z,7.60
2019-05-30T03:41:27.088Z,7.67
2019-05-30T03:43:58.727Z,6.72
2019-05-30T03:46:32.536Z,6.10
2019-05-30T03:49:08.414Z,8.10
2019-05-30T03:51:40.268Z,7.70
2019-05-30T03:54:20.305Z,10.08
2019-05-30T03:57:15.632Z,9.70
2019-05-30T03:59:59.335Z,9.98
2019-05-30T04:02:57.217Z,9.70
2019-05-30T04:05:19.912Z,9.68
2019-05-30T04:07:53.656Z,9.15
2019-05-30T04:10:35.208Z,9.90
2019-05-30T04:13:26.694Z,8.83
2019-05-30T04:15:58.758Z,9.33
2019-05-30T04:18:28.850Z,9.65
2019-05-30T04:20:59.672Z,9.08
2019-05-30T04:23:29.373Z,10.58
2019-05-30T04:26:00.638Z,10.45
2019-05-30T04:28:31.571Z,11.22
2019-05-30T04:31:01.280Z,10.85
2019-05-30T04:33:33.449Z,10.90
2019-05-30T04:36:03.378Z,10.65
2019-05-30T04:38:33.171Z,11.30
2019-05-30T04:41:05.825Z,11.93
2019-05-30T04:43:36.652Z,10.03
2019-05-30T04:46:06.844Z,11.70
2019-05-30T04:48:36.592Z,11.80
2019-05-30T04:51:10.215Z,12.13
2019-05-30T04:53:41.899Z,12.03
2019-05-30T04:56:12.670Z,12.67
2019-05-30T04:58:45.848Z,14.20
2019-05-30T05:01:17.712Z,12.87
2019-05-30T05:03:47.628Z,14.77
2019-05-30T05:06:19.726Z,13.97
2019-05-30T05:08:49.724Z,14.53
2019-05-30T05:11:23.025Z,13.63
2019-05-30T05:13:51.407Z,14.87
2019-05-30T05:16:34.508Z,14.43
2019-05-30T05:18:55.768Z,15.50
2019-05-30T05:21:26.482Z,13.90
2019-05-30T05:23:56.218Z,13.67
2019-05-30T05:26:26.196Z,14.90
2019-05-30T05:28:56.236Z,15.50
2019-05-30T05:31:31.862Z,14.93
2019-05-30T05:34:01.879Z,16.10
2019-05-30T05:36:32.971Z,17.00
2019-05-30T05:39:09.615Z,15.90
2019-05-30T05:41:39.463Z,14.97
2019-05-30T05:44:10.143Z,14.03
2019-05-30T05:46:40.166Z,13.80
2019-05-30T05:49:10.004Z,11.90
2019-05-30T05:51:40.700Z,12.23
2019-05-30T05:54:10.427Z,9.87
2019-05-30T05:56:40.123Z,9.67
2019-05-30T05:59:09.856Z,10.00
2019-05-30T06:01:39.639Z,8.67
2019-05-30T06:04:12.991Z,8.90
2019-05-30T06:06:41.820Z,8.70
2019-05-30T06:09:11.531Z,7.93
2019-05-30T06:11:41.501Z,7.80
2019-05-30T06:14:11.323Z,8.17
2019-05-30T06:16:42.423Z,8.00
2019-05-30T06:19:12.367Z,7.20
2019-05-30T06:21:53.621Z,7.30
2019-05-30T06:24:14.031Z,7.40
2019-05-30T06:26:44.079Z,6.00
2019-05-30T06:29:14.187Z,6.33
2019-05-30T06:31:44.047Z,6.87
2019-05-30T06:34:39.240Z,5.07
2019-05-30T06:37:06.202Z,4.60
2019-05-30T06:39:36.099Z,4.90
2019-05-30T06:42:05.891Z,4.77
2019-05-30T06:44:36.161Z,4.50
2019-05-30T06:47:06.724Z,4.57
2019-05-30T06:49:39.832Z,4.60
2019-05-30T06:52:09.951Z,3.07
2019-05-30T06:54:39.819Z,3.20
2019-05-30T06:57:09.536Z,3.37
2019-05-30T06:59:39.226Z,3.20
2019-05-30T07:02:09.323Z,3.03
2019-05-30T07:04:50.954Z,2.93
2019-05-30T07:07:10.561Z,2.93
2019-05-30T07:09:40.612Z,3.00
2019-05-30T07:12:12.082Z,3.00
2019-05-30T07:14:42.106Z,3.10
2019-05-30T07:17:12.216Z,2.37
2019-05-30T07:19:42.127Z,2.43
2019-05-30T07:22:11.831Z,2.77
2019-05-30T07:24:42.808Z,2.80
2019-05-30T07:27:12.663Z,2.70
2019-05-30T07:29:42.395Z,2.13
2019-05-30T07:32:13.491Z,2.70
2019-05-30T07:34:45.979Z,2.40
2019-05-30T07:37:15.990Z,2.33
2019-05-30T07:39:45.707Z,2.17
2019-05-30T07:42:15.709Z,2.23
2019-05-30T07:44:45.543Z,2.70
2019-05-30T07:47:15.263Z,2.20
2019-05-30T07:49:44.996Z,1.50
2019-05-30T07:52:15.947Z,1.80
2019-05-30T07:54:46.802Z,2.30
2019-05-30T07:57:16.523Z,1.90
2019-05-30T07:59:46.235Z,1.77
2019-05-30T08:02:15.944Z,1.80
2019-05-30T08:04:47.125Z,1.50
2019-05-30T08:07:19.260Z,1.53
2019-05-30T08:09:50.345Z,1.40
2019-05-30T08:12:20.197Z,1.20
2019-05-30T08:14:50.878Z,2.03
2019-05-30T08:17:20.571Z,1.80
2019-05-30T08:19:50.276Z,2.00
2019-05-30T08:22:20.883Z,1.47
2019-05-30T08:24:50.725Z,1.93
2019-05-30T08:27:20.477Z,1.70
2019-05-30T08:29:50.179Z,1.70
2019-05-30T08:32:19.891Z,1.87
2019-05-30T08:34:50.825Z,1.67
2019-05-30T08:37:20.715Z,1.40
2019-05-30T08:39:50.416Z,1.60
2019-05-30T08:42:20.116Z,1.60
2019-05-30T08:44:50.819Z,1.23
2019-05-30T08:47:20.500Z,1.50
2019-05-30T08:49:50.199Z,1.30
2019-05-30T08:52:20.942Z,1.47
2019-05-30T08:54:51.891Z,1.57
2019-05-30T08:57:22.243Z,1.47
2019-05-30T08:59:52.083Z,1.47
2019-05-30T09:02:21.809Z,1.80
2019-05-30T09:04:51.767Z,1.77
2019-05-30T09:07:22.808Z,1.40
2019-05-30T09:09:52.675Z,1.50
2019-05-30T09:12:22.637Z,1.50
2019-05-30T09:14:53.719Z,1.43
2019-05-30T09:17:25.487Z,1.70
2019-05-30T09:19:55.472Z,1.80
2019-05-30T09:22:25.311Z,1.37
2019-05-30T09:24:55.131Z,1.47
2019-05-30T09:27:24.944Z,1.90
2019-05-30T09:29:54.920Z,1.90
2019-05-30T09:32:26.028Z,1.50
2019-05-30T09:34:57.065Z,1.43
2019-05-30T09:37:30.273Z,1.63
2019-05-30T09:40:01.059Z,1.60
2019-05-30T09:42:30.759Z,1.73
2019-05-30T09:45:00.448Z,1.53
2019-05-30T09:47:30.413Z,1.60
2019-05-30T09:50:07.927Z,1.60
2019-05-30T09:52:38.036Z,1.20
2019-05-30T09:55:17.504Z,1.40
2019-05-30T09:57:47.611Z,1.50
2019-05-30T10:00:23.796Z,1.30
2019-05-30T10:02:55.140Z,1.20
2019-05-30T10:05:25.234Z,1.17
2019-05-30T10:07:58.195Z,1.20
2019-05-30T10:10:33.812Z,1.20
2019-05-30T10:13:03.789Z,1.40
2019-05-30T10:15:44.052Z,1.30
2019-05-30T10:18:15.366Z,1.50
2019-05-30T10:20:48.159Z,1.30
2019-05-30T10:23:25.551Z,1.50
2019-05-30T10:25:55.384Z,1.20
2019-05-30T10:28:25.341Z,1.40
2019-05-30T10:31:02.064Z,1.50
2019-05-30T10:33:31.830Z,1.37
2019-05-30T10:36:01.521Z,1.30
2019-05-30T10:38:31.533Z,1.03
2019-05-30T10:41:01.382Z,1.10
2019-05-30T10:43:31.352Z,1.20
2019-05-30T10:46:01.463Z,1.27
2019-05-30T10:48:32.201Z,1.10
2019-05-30T10:51:02.181Z,1.10
2019-05-30T10:53:32.264Z,1.30
2019-05-30T10:56:05.508Z,1.23
2019-05-30T10:58:35.352Z,1.17
2019-05-30T11:01:05.757Z,1.07
2019-05-30T11:03:35.868Z,1.10
2019-05-30T11:06:35.442Z,1.40
2019-05-30T11:09:08.016Z,1.10
2019-05-30T11:11:37.984Z,1.20
2019-05-30T11:14:07.824Z,1.10
2019-05-30T11:16:37.797Z,1.07
2019-05-30T11:19:08.029Z,0.97
2019-05-30T11:21:38.128Z,1.13
2019-05-30T11:24:08.446Z,1.10
2019-05-30T11:26:38.569Z,1.63
2019-05-30T11:29:08.704Z,1.27
2019-05-30T11:31:38.655Z,1.60
2019-05-30T11:34:09.280Z,1.43
2019-05-30T11:36:39.020Z,1.20
2019-05-30T11:39:08.791Z,1.40
2019-05-30T11:41:40.797Z,1.03
2019-05-30T11:44:11.940Z,1.13
2019-05-30T11:46:49.335Z,1.20
2019-05-30T11:49:19.099Z,1.37
2019-05-30T11:51:49.681Z,0.93
2019-05-30T11:54:20.819Z,1.20
2019-05-30T11:56:52.027Z,1.07
2019-05-30T11:59:24.125Z,1.30
2019-05-30T12:02:00.545Z,1.23
2019-05-30T12:04:32.264Z,1.10
2019-05-30T12:07:08.238Z,1.60
2019-05-30T12:09:38.064Z,1.13
2019-05-30T12:12:27.398Z,1.20
2019-05-30T12:14:57.427Z,1.30
2019-05-30T12:17:28.948Z,1.23
2019-05-30T12:19:59.588Z,0.97
2019-05-30T12:22:29.616Z,1.53
2019-05-30T12:25:00.273Z,2.17
2019-05-30T12:27:30.340Z,1.20
2019-05-30T12:30:02.720Z,1.00
2019-05-30T12:32:32.852Z,1.30
2019-05-30T12:35:03.206Z,1.77
2019-05-30T12:37:53.614Z,1.30
2019-05-30T12:40:19.944Z,1.47
2019-05-30T12:42:55.416Z,1.30
2019-05-30T13:13:56.586Z,33.53
2019-05-30T13:16:27.929Z,31.23
2019-05-30T13:19:00.009Z,26.50
2019-05-30T13:25:37.173Z,1.40
2019-05-30T13:28:10.124Z,1.50
2019-05-30T13:30:41.112Z,1.20
2019-05-30T13:33:12.079Z,1.50
2019-05-30T13:35:43.277Z,1.63
2019-05-30T13:38:26.076Z,2.10
2019-05-30T13:40:47.921Z,1.57
2019-05-30T13:43:18.862Z,1.30
2019-05-30T13:45:49.753Z,1.20
2019-05-30T13:48:22.942Z,1.40
2019-05-30T13:50:54.240Z,1.50
2019-05-30T13:53:25.529Z,1.43
2019-05-30T13:55:59.512Z,1.60
2019-05-30T13:58:30.820Z,1.50
2019-05-30T14:01:09.403Z,1.33
2019-05-30T14:03:36.465Z,1.20
2019-05-30T14:06:08.343Z,2.30
2019-05-30T14:10:52.673Z,1.70
2019-05-30T14:13:25.284Z,1.90
2019-05-30T14:15:57.848Z,1.70
2019-05-30T14:18:30.145Z,1.70
2019-05-30T14:21:03.491Z,1.83
2019-05-30T14:23:34.984Z,1.23
2019-05-30T14:26:07.385Z,1.60
2019-05-30T14:28:39.388Z,1.33
2019-05-30T14:31:13.430Z,1.97
2019-05-30T14:33:46.065Z,1.83
2019-05-30T14:36:18.209Z,1.90
2019-05-30T14:38:58.486Z,2.17
2019-05-30T14:41:23.824Z,2.17
2019-05-30T14:45:17.680Z,2.03
2019-05-30T14:47:52.585Z,2.23
2019-05-30T14:50:25.377Z,1.87
2019-05-30T14:52:55.843Z,1.93
2019-05-30T14:55:26.954Z,1.80
2019-05-30T14:57:58.499Z,2.00
2019-05-30T15:00:29.718Z,2.10
2019-05-30T15:03:00.848Z,2.00
2019-05-30T15:05:32.154Z,1.67
2019-05-30T15:10:36.065Z,1.30
2019-05-30T15:13:07.842Z,1.80
2019-05-30T15:15:39.256Z,1.63
2019-05-30T15:18:17.693Z,1.20
2019-05-30T15:20:52.257Z,1.33
2019-05-30T15:23:24.508Z,1.57
2019-05-30T15:25:59.717Z,1.17
2019-05-30T15:28:32.725Z,1.57
2019-05-30T15:31:06.746Z,4.77
2019-05-30T15:33:40.289Z,3.10
2019-05-30T15:36:12.802Z,2.20
2019-05-30T15:38:45.064Z,1.20
2019-05-30T15:41:17.406Z,1.50
2019-05-30T15:43:50.729Z,1.40
2019-05-30T15:46:23.883Z,1.53
2019-05-30T15:48:55.900Z,1.57
2019-05-30T15:51:29.110Z,1.30
2019-05-30T15:54:01.582Z,1.50
2019-05-30T15:56:33.779Z,1.30
2019-05-30T15:59:06.348Z,1.50
2019-05-30T16:01:38.089Z,1.30
2019-05-30T16:04:10.054Z,1.40
2019-05-30T16:06:42.194Z,1.80
2019-05-30T16:11:39.433Z,2.00
2019-05-30T16:14:11.135Z,2.20
2019-05-30T16:17:55.842Z,1.70
2019-05-30T16:20:54.250Z,2.03
2019-05-30T16:23:27.692Z,1.63
2019-05-30T16:25:59.506Z,1.73
2019-05-30T16:28:31.357Z,1.37
2019-05-30T16:31:09.588Z,1.20
2019-05-30T16:33:38.925Z,1.30
2019-05-30T16:38:07.701Z,1.40
2019-05-30T16:40:59.678Z,1.70
2019-05-30T16:43:53.853Z,2.20
2019-05-30T16:46:43.933Z,1.97
2019-05-30T16:49:34.170Z,1.73
2019-05-30T16:52:27.295Z,1.70
2019-05-30T16:56:29.001Z,1.90
2019-05-30T16:59:25.391Z,1.83
2019-05-30T17:03:26.112Z,1.63
2019-05-30T17:07:30.122Z,1.57
2019-05-30T17:12:09.143Z,2.07
2019-05-30T17:17:03.119Z,1.73
2019-05-30T17:21:29.757Z,2.67
2019-05-30T17:26:17.421Z,2.50
2019-05-30T17:28:50.542Z,3.70
2019-05-30T17:31:23.831Z,3.13
2019-05-30T17:33:57.197Z,2.20
2019-05-30T17:36:29.498Z,2.00
2019-05-30T17:39:02.601Z,1.50
2019-05-30T17:41:36.013Z,1.67
2019-05-30T17:44:08.003Z,1.60
2019-05-30T17:46:40.303Z,1.43
2019-05-30T17:49:12.442Z,1.20
2019-05-30T17:51:44.417Z,1.27
2019-05-30T17:54:16.405Z,1.83
2019-05-30T17:56:49.294Z,1.50
2019-05-30T17:59:22.322Z,1.43
2019-05-30T18:01:54.864Z,1.60
2019-05-30T18:04:27.021Z,1.60
2019-05-30T18:06:59.917Z,1.53
2019-05-30T18:09:31.865Z,1.70
2019-05-30T18:12:04.588Z,1.50
2019-05-30T18:14:37.026Z,1.40
2019-05-30T18:17:10.075Z,1.70
2019-05-30T18:19:45.341Z,1.37
2019-05-30T18:22:17.573Z,1.23
2019-05-30T18:24:50.772Z,1.30
2019-05-30T18:27:28.102Z,1.70
2019-05-30T18:30:02.226Z,1.60
2019-05-30T18:32:36.509Z,1.53
2019-05-30T18:35:11.135Z,1.40
2019-05-30T18:37:43.505Z,1.33
2019-05-30T18:40:30.946Z,1.60
2019-05-30T18:43:03.202Z,1.30
2019-05-30T18:45:41.722Z,1.40
2019-05-30T18:48:17.189Z,1.43
2019-05-30T18:50:49.641Z,2.00
2019-05-30T18:53:24.160Z,2.30
2019-05-30T18:55:58.450Z,1.60
2019-05-30T18:58:31.289Z,1.50
2019-05-30T19:01:03.440Z,1.60
2019-05-30T19:03:38.443Z,1.73
2019-05-30T19:06:10.577Z,1.57
2019-05-30T19:08:43.602Z,1.63
2019-05-30T19:11:27.155Z,1.47
2019-05-30T19:13:50.834Z,1.60
2019-05-30T19:16:23.277Z,2.00
2019-05-30T19:18:56.534Z,1.60
2019-05-30T19:21:28.477Z,1.37
2019-05-30T19:24:01.445Z,1.80
2019-05-30T19:26:34.612Z,1.60
2019-05-30T19:29:08.040Z,1.47
2019-05-30T19:31:40.502Z,2.07
2019-05-30T19:34:16.352Z,2.50
2019-05-30T19:39:07.754Z,3.13
2019-05-30T19:41:52.590Z,4.40
2019-05-30T19:44:11.821Z,4.57
2019-05-30T19:46:43.969Z,4.67
2019-05-30T19:49:15.073Z,4.33
2019-05-30T19:51:46.213Z,5.30
2019-05-30T19:56:27.073Z,3.70
2019-05-30T19:58:59.157Z,3.30
2019-05-30T20:01:31.728Z,3.20
2019-05-30T20:04:04.049Z,2.20
2019-05-30T20:06:36.632Z,2.70
2019-05-30T20:09:10.100Z,3.10
2019-05-30T20:11:42.225Z,2.33
2019-05-30T20:14:14.293Z,1.83
2019-05-30T20:16:47.201Z,2.00
2019-05-30T20:19:24.649Z,2.07
2019-05-30T20:21:57.097Z,1.90
2019-05-30T20:24:29.553Z,2.00
2019-05-30T20:27:01.677Z,1.80
2019-05-30T20:29:34.988Z,1.80
2019-05-30T20:32:08.189Z,2.20
2019-05-30T20:34:40.908Z,2.00
2019-05-30T20:37:13.005Z,2.07
2019-05-30T20:39:45.277Z,2.30
2019-05-30T20:42:19.494Z,2.40
2019-05-30T20:44:52.021Z,2.23
2019-05-30T20:47:24.338Z,2.13
2019-05-30T20:49:56.821Z,2.67
2019-05-30T20:52:29.257Z,2.60
2019-05-30T20:55:01.695Z,2.40
2019-05-30T20:57:52.181Z,2.70
2019-05-30T21:00:42.401Z,2.83
2019-05-30T21:03:14.889Z,2.37
2019-05-30T21:05:48.469Z,3.07
2019-05-30T21:08:20.664Z,2.60
2019-05-30T21:10:57.986Z,2.10
2019-05-30T21:13:36.176Z,2.43
2019-05-30T21:16:13.649Z,1.80
2019-05-30T21:18:46.762Z,1.70
2019-05-30T21:21:18.725Z,2.13
2019-05-30T21:23:52.082Z,1.70
2019-05-30T21:26:24.229Z,1.60
2019-05-30T21:28:56.173Z,2.27
2019-05-30T21:31:28.199Z,2.13
2019-05-30T21:34:00.578Z,2.30
2019-05-30T21:36:33.085Z,2.43
2019-05-30T21:39:07.761Z,2.27
2019-05-30T21:41:42.180Z,2.87
2019-05-30T21:44:14.736Z,3.37
2019-05-30T21:46:46.885Z,2.83
2019-05-30T21:49:18.833Z,2.70
2019-05-30T21:51:50.794Z,2.90
2019-05-30T21:54:22.737Z,2.60
2019-05-30T21:56:54.698Z,2.33
2019-05-30T21:59:27.942Z,2.70
2019-05-30T22:02:00.597Z,2.07
2019-05-30T22:04:32.609Z,2.77
2019-05-30T22:07:04.663Z,2.10
2019-05-30T22:09:41.184Z,2.60
2019-05-30T22:12:13.394Z,1.97
2019-05-30T22:14:45.793Z,2.27
2019-05-30T22:17:20.962Z,2.37
2019-05-30T22:19:53.465Z,2.30
2019-05-30T22:22:25.625Z,2.77
2019-05-30T22:24:57.904Z,2.40
2019-05-30T22:27:30.358Z,2.13
2019-05-30T22:30:07.681Z,2.57
2019-05-30T22:32:39.869Z,2.63
2019-05-30T22:35:12.278Z,2.23
2019-05-30T22:37:44.776Z,2.23
2019-05-30T22:40:17.029Z,1.93
2019-05-30T22:42:52.228Z,2.50
2019-05-30T22:45:25.609Z,2.87
2019-05-30T22:47:57.661Z,2.43
2019-05-30T22:50:29.983Z,2.60
2019-05-30T22:53:02.193Z,2.63
2019-05-30T22:55:34.462Z,2.77
2019-05-30T22:58:06.934Z,2.30
2019-05-30T23:00:39.462Z,2.33
2019-05-30T23:03:11.951Z,2.97
2019-05-30T23:05:45.254Z,2.90
2019-05-30T23:08:17.305Z,2.67
2019-05-30T23:10:51.620Z,2.90
2019-05-30T23:13:23.858Z,2.63
2019-05-30T23:15:56.327Z,3.10
2019-05-30T23:18:28.354Z,2.80
2019-05-30T23:21:00.305Z,2.60
2019-05-30T23:23:32.573Z,2.80
2019-05-30T23:26:05.011Z,2.67
2019-05-30T23:28:37.172Z,3.10
2019-05-30T23:31:09.422Z,3.00
2019-05-30T23:33:41.887Z,3.60
2019-05-30T23:36:14.062Z,3.37
2019-05-30T23:38:46.006Z,3.10
2019-05-30T23:41:17.969Z,2.73
2019-05-30T23:43:57.976Z,2.93
2019-05-30T23:46:24.089Z,2.60
2019-05-30T23:48:56.033Z,2.90
2019-05-30T23:51:28.085Z,2.67
2019-05-30T23:54:00.541Z,3.00
2019-05-30T23:56:32.614Z,3.10
2019-05-30T23:59:05.481Z,3.43
